sensor_id;sensor_type;location;lat;lon;timestamp;P1;durP1;ratioP1;P2;durP2;ratioP2
69087;SDS011;56190;43.562;5.036;2023-01-19T00:02:16;3.78;;;3.17;;
69087;SDS011;56190;43.562;5.036;2023-01-19T00:04:41;4.20;;;3.20;;
69087;SDS011;56190;43.562;5.036;2023-01-19T00:07:06;4.25;;;3.35;;
69087;SDS011;56190;43.562;5.036;2023-01-19T00:09:31;4.65;;;3.20;;
69087;SDS011;56190;43.562;5.036;2023-01-19T00:11:57;4.60;;;3.28;;
69087;SDS011;56190;43.562;5.036;2023-01-19T00:14:23;4.53;;;3.13;;
69087;SDS011;56190;43.562;5.036;2023-01-19T00:16:48;4.18;;;3.78;;
69087;SDS011;56190;43.562;5.036;2023-01-19T00:19:13;4.15;;;3.00;;
69087;SDS011;56190;43.562;5.036;2023-01-19T00:21:39;4.82;;;3.97;;
69087;SDS011;56190;43.562;5.036;2023-01-19T00:24:04;4.18;;;3.78;;
69087;SDS011;56190;43.562;5.036;2023-01-19T00:26:29;4.10;;;3.53;;
69087;SDS011;56190;43.562;5.036;2023-01-19T00:28:55;4.55;;;3.70;;
69087;SDS011;56190;43.562;5.036;2023-01-19T00:31:20;5.43;;;4.07;;
69087;SDS011;56190;43.562;5.036;2023-01-19T00:33:45;6.45;;;4.13;;
69087;SDS011;56190;43.562;5.036;2023-01-19T00:36:13;5.38;;;3.65;;
69087;SDS011;56190;43.562;5.036;2023-01-19T00:38:38;3.65;;;2.95;;
69087;SDS011;56190;43.562;5.036;2023-01-19T00:41:03;4.65;;;3.08;;
69087;SDS011;56190;43.562;5.036;2023-01-19T00:43:28;3.70;;;2.90;;
69087;SDS011;56190;43.562;5.036;2023-01-19T00:45:54;3.58;;;2.88;;
69087;SDS011;56190;43.562;5.036;2023-01-19T00:48:20;3.38;;;2.70;;
69087;SDS011;56190;43.562;5.036;2023-01-19T00:50:45;4.78;;;3.50;;
69087;SDS011;56190;43.562;5.036;2023-01-19T00:53:12;3.53;;;2.72;;
69087;SDS011;56190;43.562;5.036;2023-01-19T00:55:37;3.55;;;2.78;;
69087;SDS011;56190;43.562;5.036;2023-01-19T00:58:02;3.63;;;2.28;;
69087;SDS011;56190;43.562;5.036;2023-01-19T01:00:28;4.68;;;3.58;;
69087;SDS011;56190;43.562;5.036;2023-01-19T01:02:53;2.40;;;2.20;;
69087;SDS011;56190;43.562;5.036;2023-01-19T01:05:19;4.50;;;2.50;;
69087;SDS011;56190;43.562;5.036;2023-01-19T01:07:44;3.00;;;2.40;;
69087;SDS011;56190;43.562;5.036;2023-01-19T01:10:13;3.60;;;2.03;;
69087;SDS011;56190;43.562;5.036;2023-01-19T01:12:38;2.13;;;1.80;;
69087;SDS011;56190;43.562;5.036;2023-01-19T01:15:05;3.10;;;2.00;;
69087;SDS011;56190;43.562;5.036;2023-01-19T01:17:30;3.22;;;1.75;;
69087;SDS011;56190;43.562;5.036;2023-01-19T01:19:56;2.55;;;1.60;;
69087;SDS011;56190;43.562;5.036;2023-01-19T01:22:21;2.08;;;1.55;;
69087;SDS011;56190;43.562;5.036;2023-01-19T01:24:46;2.35;;;1.70;;
69087;SDS011;56190;43.562;5.036;2023-01-19T01:27:11;2.50;;;1.60;;
69087;SDS011;56190;43.562;5.036;2023-01-19T01:29:37;2.05;;;1.85;;
69087;SDS011;56190;43.562;5.036;2023-01-19T01:32:05;2.85;;;1.75;;
69087;SDS011;56190;43.562;5.036;2023-01-19T01:34:30;2.83;;;1.77;;
69087;SDS011;56190;43.562;5.036;2023-01-19T01:36:55;2.33;;;2.00;;
69087;SDS011;56190;43.562;5.036;2023-01-19T01:39:20;2.75;;;1.85;;
69087;SDS011;56190;43.562;5.036;2023-01-19T01:41:46;2.58;;;1.98;;
69087;SDS011;56190;43.562;5.036;2023-01-19T01:46:55;1.83;;;1.60;;
69087;SDS011;56190;43.562;5.036;2023-01-19T01:49:20;2.92;;;1.80;;
69087;SDS011;56190;43.562;5.036;2023-01-19T01:51:47;2.03;;;1.65;;
69087;SDS011;56190;43.562;5.036;2023-01-19T01:54:26;3.00;;;1.60;;
69087;SDS011;56190;43.562;5.036;2023-01-19T01:56:54;2.63;;;1.50;;
69087;SDS011;56190;43.562;5.036;2023-01-19T01:59:21;2.75;;;1.45;;
69087;SDS011;56190;43.562;5.036;2023-01-19T02:01:57;3.85;;;1.90;;
69087;SDS011;56190;43.562;5.036;2023-01-19T02:04:44;1.75;;;1.40;;
69087;SDS011;56190;43.562;5.036;2023-01-19T02:07:11;2.25;;;1.65;;
69087;SDS011;56190;43.562;5.036;2023-01-19T02:09:56;2.83;;;1.70;;
69087;SDS011;56190;43.562;5.036;2023-01-19T02:12:40;2.65;;;2.17;;
69087;SDS011;56190;43.562;5.036;2023-01-19T02:15:24;2.30;;;1.73;;
69087;SDS011;56190;43.562;5.036;2023-01-19T02:17:49;3.67;;;1.50;;
69087;SDS011;56190;43.562;5.036;2023-01-19T02:20:15;3.30;;;1.95;;
69087;SDS011;56190;43.562;5.036;2023-01-19T02:22:44;2.03;;;1.83;;
69087;SDS011;56190;43.562;5.036;2023-01-19T02:25:11;2.25;;;1.67;;
69087;SDS011;56190;43.562;5.036;2023-01-19T02:27:36;2.53;;;1.70;;
69087;SDS011;56190;43.562;5.036;2023-01-19T02:30:02;2.80;;;1.75;;
69087;SDS011;56190;43.562;5.036;2023-01-19T02:32:27;3.10;;;1.50;;
69087;SDS011;56190;43.562;5.036;2023-01-19T02:34:53;2.45;;;1.40;;
69087;SDS011;56190;43.562;5.036;2023-01-19T02:37:18;1.83;;;1.20;;
69087;SDS011;56190;43.562;5.036;2023-01-19T02:39:49;2.78;;;1.42;;
69087;SDS011;56190;43.562;5.036;2023-01-19T02:42:17;2.08;;;1.50;;
69087;SDS011;56190;43.562;5.036;2023-01-19T02:44:44;1.88;;;1.58;;
69087;SDS011;56190;43.562;5.036;2023-01-19T02:47:10;1.70;;;1.55;;
69087;SDS011;56190;43.562;5.036;2023-01-19T02:49:36;3.55;;;1.75;;
69087;SDS011;56190;43.562;5.036;2023-01-19T02:52:01;3.03;;;1.58;;
69087;SDS011;56190;43.562;5.036;2023-01-19T02:57:16;1.65;;;1.30;;
69087;SDS011;56190;43.562;5.036;2023-01-19T03:09:48;2.28;;;1.70;;
69087;SDS011;56190;43.562;5.036;2023-01-19T03:12:23;2.80;;;1.80;;
69087;SDS011;56190;43.562;5.036;2023-01-19T03:14:51;2.17;;;1.60;;
69087;SDS011;56190;43.562;5.036;2023-01-19T03:17:17;3.28;;;1.50;;
69087;SDS011;56190;43.562;5.036;2023-01-19T03:19:43;3.00;;;1.40;;
69087;SDS011;56190;43.562;5.036;2023-01-19T03:22:11;3.15;;;1.52;;
69087;SDS011;56190;43.562;5.036;2023-01-19T03:24:38;4.00;;;1.60;;
69087;SDS011;56190;43.562;5.036;2023-01-19T03:27:05;12.52;;;8.93;;
69087;SDS011;56190;43.562;5.036;2023-01-19T03:29:32;5.57;;;4.80;;
69087;SDS011;56190;43.562;5.036;2023-01-19T03:32:09;5.38;;;3.35;;
69087;SDS011;56190;43.562;5.036;2023-01-19T03:34:35;6.65;;;4.63;;
69087;SDS011;56190;43.562;5.036;2023-01-19T03:37:02;3.97;;;3.65;;
69087;SDS011;56190;43.562;5.036;2023-01-19T03:39:29;5.40;;;4.90;;
69087;SDS011;56190;43.562;5.036;2023-01-19T03:41:57;4.90;;;4.40;;
69087;SDS011;56190;43.562;5.036;2023-01-19T03:44:24;2.38;;;2.20;;
69087;SDS011;56190;43.562;5.036;2023-01-19T03:46:49;2.95;;;2.35;;
69087;SDS011;56190;43.562;5.036;2023-01-19T03:49:15;2.63;;;2.22;;
69087;SDS011;56190;43.562;5.036;2023-01-19T03:51:40;2.10;;;1.88;;
69087;SDS011;56190;43.562;5.036;2023-01-19T03:54:06;3.03;;;1.80;;
69087;SDS011;56190;43.562;5.036;2023-01-19T03:56:31;2.78;;;2.45;;
69087;SDS011;56190;43.562;5.036;2023-01-19T03:58:57;3.08;;;2.28;;
69087;SDS011;56190;43.562;5.036;2023-01-19T04:01:22;2.30;;;1.90;;
69087;SDS011;56190;43.562;5.036;2023-01-19T04:03:48;2.97;;;2.15;;
69087;SDS011;56190;43.562;5.036;2023-01-19T04:06:13;3.83;;;2.45;;
69087;SDS011;56190;43.562;5.036;2023-01-19T04:08:39;2.42;;;2.05;;
69087;SDS011;56190;43.562;5.036;2023-01-19T04:11:04;2.90;;;2.08;;
69087;SDS011;56190;43.562;5.036;2023-01-19T04:13:30;4.00;;;2.97;;
69087;SDS011;56190;43.562;5.036;2023-01-19T04:15:59;6.60;;;4.03;;
69087;SDS011;56190;43.562;5.036;2023-01-19T04:18:25;9.05;;;5.75;;
69087;SDS011;56190;43.562;5.036;2023-01-19T04:20:50;6.03;;;4.25;;
69087;SDS011;56190;43.562;5.036;2023-01-19T04:23:15;5.57;;;4.13;;
69087;SDS011;56190;43.562;5.036;2023-01-19T04:25:41;6.57;;;4.70;;
69087;SDS011;56190;43.562;5.036;2023-01-19T04:28:06;6.10;;;4.60;;
69087;SDS011;56190;43.562;5.036;2023-01-19T04:30:31;11.15;;;7.50;;
69087;SDS011;56190;43.562;5.036;2023-01-19T04:32:57;9.38;;;5.97;;
69087;SDS011;56190;43.562;5.036;2023-01-19T04:35:23;7.85;;;6.13;;
69087;SDS011;56190;43.562;5.036;2023-01-19T04:37:48;4.95;;;4.40;;
69087;SDS011;56190;43.562;5.036;2023-01-19T04:40:13;4.22;;;3.80;;
69087;SDS011;56190;43.562;5.036;2023-01-19T04:42:42;6.28;;;5.68;;
69087;SDS011;56190;43.562;5.036;2023-01-19T04:45:07;4.80;;;3.80;;
69087;SDS011;56190;43.562;5.036;2023-01-19T04:47:33;5.53;;;3.75;;
69087;SDS011;56190;43.562;5.036;2023-01-19T04:49:58;5.32;;;4.82;;
69087;SDS011;56190;43.562;5.036;2023-01-19T04:52:23;5.72;;;4.85;;
69087;SDS011;56190;43.562;5.036;2023-01-19T04:54:48;6.85;;;4.88;;
69087;SDS011;56190;43.562;5.036;2023-01-19T04:57:14;19.27;;;12.25;;
69087;SDS011;56190;43.562;5.036;2023-01-19T04:59:39;17.48;;;12.15;;
69087;SDS011;56190;43.562;5.036;2023-01-19T05:02:04;7.90;;;7.10;;
69087;SDS011;56190;43.562;5.036;2023-01-19T05:04:29;6.72;;;6.03;;
69087;SDS011;56190;43.562;5.036;2023-01-19T05:06:55;5.82;;;5.32;;
69087;SDS011;56190;43.562;5.036;2023-01-19T05:09:22;7.45;;;5.32;;
69087;SDS011;56190;43.562;5.036;2023-01-19T05:11:47;6.82;;;4.47;;
69087;SDS011;56190;43.562;5.036;2023-01-19T05:14:12;4.70;;;4.30;;
69087;SDS011;56190;43.562;5.036;2023-01-19T05:16:37;5.82;;;4.63;;
69087;SDS011;56190;43.562;5.036;2023-01-19T05:19:03;6.68;;;5.90;;
69087;SDS011;56190;43.562;5.036;2023-01-19T05:21:28;5.70;;;4.47;;
69087;SDS011;56190;43.562;5.036;2023-01-19T05:23:53;4.45;;;4.05;;
69087;SDS011;56190;43.562;5.036;2023-01-19T05:26:19;4.80;;;4.25;;
69087;SDS011;56190;43.562;5.036;2023-01-19T05:28:44;5.00;;;3.80;;
69087;SDS011;56190;43.562;5.036;2023-01-19T05:31:09;4.15;;;3.60;;
69087;SDS011;56190;43.562;5.036;2023-01-19T05:33:34;5.15;;;3.70;;
69087;SDS011;56190;43.562;5.036;2023-01-19T05:36:00;3.75;;;3.03;;
69087;SDS011;56190;43.562;5.036;2023-01-19T05:38:26;6.28;;;3.40;;
69087;SDS011;56190;43.562;5.036;2023-01-19T05:41:00;5.38;;;3.60;;
69087;SDS011;56190;43.562;5.036;2023-01-19T05:43:26;3.78;;;3.00;;
69087;SDS011;56190;43.562;5.036;2023-01-19T05:45:52;3.33;;;2.83;;
69087;SDS011;56190;43.562;5.036;2023-01-19T05:48:17;4.32;;;2.85;;
69087;SDS011;56190;43.562;5.036;2023-01-19T05:50:42;4.78;;;3.40;;
69087;SDS011;56190;43.562;5.036;2023-01-19T05:53:07;5.20;;;3.05;;
69087;SDS011;56190;43.562;5.036;2023-01-19T05:55:33;3.88;;;2.83;;
69087;SDS011;56190;43.562;5.036;2023-01-19T05:57:58;4.43;;;3.03;;
69087;SDS011;56190;43.562;5.036;2023-01-19T06:00:23;3.95;;;2.83;;
69087;SDS011;56190;43.562;5.036;2023-01-19T06:02:49;3.88;;;2.88;;
69087;SDS011;56190;43.562;5.036;2023-01-19T06:05:15;4.45;;;2.85;;
69087;SDS011;56190;43.562;5.036;2023-01-19T06:07:40;4.88;;;3.10;;
69087;SDS011;56190;43.562;5.036;2023-01-19T06:10:05;5.75;;;3.15;;
69087;SDS011;56190;43.562;5.036;2023-01-19T06:12:31;3.50;;;2.70;;
69087;SDS011;56190;43.562;5.036;2023-01-19T06:14:56;3.72;;;2.67;;
69087;SDS011;56190;43.562;5.036;2023-01-19T06:17:21;5.15;;;3.10;;
69087;SDS011;56190;43.562;5.036;2023-01-19T06:19:47;4.72;;;3.40;;
69087;SDS011;56190;43.562;5.036;2023-01-19T06:22:12;4.65;;;3.08;;
69087;SDS011;56190;43.562;5.036;2023-01-19T06:24:37;4.57;;;3.80;;
69087;SDS011;56190;43.562;5.036;2023-01-19T06:27:03;11.30;;;6.45;;
69087;SDS011;56190;43.562;5.036;2023-01-19T06:29:30;5.00;;;3.42;;
69087;SDS011;56190;43.562;5.036;2023-01-19T06:31:55;7.43;;;5.13;;
69087;SDS011;56190;43.562;5.036;2023-01-19T06:34:21;7.85;;;5.10;;
69087;SDS011;56190;43.562;5.036;2023-01-19T06:36:46;7.00;;;5.22;;
69087;SDS011;56190;43.562;5.036;2023-01-19T06:39:11;10.07;;;6.60;;
69087;SDS011;56190;43.562;5.036;2023-01-19T06:41:37;7.88;;;5.97;;
69087;SDS011;56190;43.562;5.036;2023-01-19T06:44:02;6.95;;;5.10;;
69087;SDS011;56190;43.562;5.036;2023-01-19T06:46:28;7.65;;;5.15;;
69087;SDS011;56190;43.562;5.036;2023-01-19T06:48:53;6.78;;;4.20;;
69087;SDS011;56190;43.562;5.036;2023-01-19T06:51:19;5.25;;;4.28;;
69087;SDS011;56190;43.562;5.036;2023-01-19T06:53:44;8.05;;;5.97;;
69087;SDS011;56190;43.562;5.036;2023-01-19T06:56:10;6.25;;;4.40;;
69087;SDS011;56190;43.562;5.036;2023-01-19T06:58:35;4.90;;;3.20;;
69087;SDS011;56190;43.562;5.036;2023-01-19T07:01:01;6.20;;;4.10;;
69087;SDS011;56190;43.562;5.036;2023-01-19T07:03:27;6.18;;;3.65;;
69087;SDS011;56190;43.562;5.036;2023-01-19T07:05:52;6.28;;;4.28;;
69087;SDS011;56190;43.562;5.036;2023-01-19T07:08:17;4.40;;;3.40;;
69087;SDS011;56190;43.562;5.036;2023-01-19T07:10:43;6.00;;;3.97;;
69087;SDS011;56190;43.562;5.036;2023-01-19T07:13:08;5.97;;;4.20;;
69087;SDS011;56190;43.562;5.036;2023-01-19T07:15:33;5.53;;;3.75;;
69087;SDS011;56190;43.562;5.036;2023-01-19T07:17:59;4.53;;;3.38;;
69087;SDS011;56190;43.562;5.036;2023-01-19T07:20:27;5.57;;;3.97;;
69087;SDS011;56190;43.562;5.036;2023-01-19T07:22:56;6.82;;;4.95;;
69087;SDS011;56190;43.562;5.036;2023-01-19T07:25:21;10.20;;;5.85;;
69087;SDS011;56190;43.562;5.036;2023-01-19T07:27:46;7.22;;;5.50;;
69087;SDS011;56190;43.562;5.036;2023-01-19T07:30:12;10.40;;;6.72;;
69087;SDS011;56190;43.562;5.036;2023-01-19T07:32:40;9.00;;;6.32;;
69087;SDS011;56190;43.562;5.036;2023-01-19T07:35:06;10.80;;;8.05;;
69087;SDS011;56190;43.562;5.036;2023-01-19T07:37:31;12.05;;;8.25;;
69087;SDS011;56190;43.562;5.036;2023-01-19T07:39:57;12.10;;;8.52;;
69087;SDS011;56190;43.562;5.036;2023-01-19T07:42:22;12.80;;;9.40;;
69087;SDS011;56190;43.562;5.036;2023-01-19T07:44:47;8.70;;;6.82;;
69087;SDS011;56190;43.562;5.036;2023-01-19T07:47:12;8.18;;;5.40;;
69087;SDS011;56190;43.562;5.036;2023-01-19T07:49:38;6.25;;;5.10;;
69087;SDS011;56190;43.562;5.036;2023-01-19T07:52:03;10.65;;;7.78;;
69087;SDS011;56190;43.562;5.036;2023-01-19T07:54:28;15.65;;;11.68;;
69087;SDS011;56190;43.562;5.036;2023-01-19T07:56:54;7.10;;;5.07;;
69087;SDS011;56190;43.562;5.036;2023-01-19T07:59:19;13.75;;;9.20;;
69087;SDS011;56190;43.562;5.036;2023-01-19T08:01:44;10.25;;;6.28;;
69087;SDS011;56190;43.562;5.036;2023-01-19T08:04:09;6.30;;;4.90;;
69087;SDS011;56190;43.562;5.036;2023-01-19T08:06:36;8.02;;;6.28;;
69087;SDS011;56190;43.562;5.036;2023-01-19T08:09:01;6.30;;;4.60;;
69087;SDS011;56190;43.562;5.036;2023-01-19T08:11:29;7.18;;;5.75;;
69087;SDS011;56190;43.562;5.036;2023-01-19T08:13:54;8.82;;;4.85;;
69087;SDS011;56190;43.562;5.036;2023-01-19T08:16:20;8.45;;;4.70;;
69087;SDS011;56190;43.562;5.036;2023-01-19T08:18:45;10.15;;;3.65;;
69087;SDS011;56190;43.562;5.036;2023-01-19T08:21:10;6.03;;;5.10;;
69087;SDS011;56190;43.562;5.036;2023-01-19T08:23:35;8.90;;;4.60;;
69087;SDS011;56190;43.562;5.036;2023-01-19T08:26:01;10.18;;;6.05;;
69087;SDS011;56190;43.562;5.036;2023-01-19T08:28:26;11.25;;;7.78;;
69087;SDS011;56190;43.562;5.036;2023-01-19T08:30:52;9.88;;;6.88;;
69087;SDS011;56190;43.562;5.036;2023-01-19T08:33:20;8.40;;;5.43;;
69087;SDS011;56190;43.562;5.036;2023-01-19T08:35:49;6.82;;;5.00;;
69087;SDS011;56190;43.562;5.036;2023-01-19T08:38:14;11.48;;;7.47;;
69087;SDS011;56190;43.562;5.036;2023-01-19T08:40:41;4.88;;;3.20;;
69087;SDS011;56190;43.562;5.036;2023-01-19T08:43:07;10.32;;;6.65;;
69087;SDS011;56190;43.562;5.036;2023-01-19T08:45:33;7.13;;;5.05;;
69087;SDS011;56190;43.562;5.036;2023-01-19T08:47:59;10.13;;;5.88;;
69087;SDS011;56190;43.562;5.036;2023-01-19T08:50:28;6.63;;;5.10;;
69087;SDS011;56190;43.562;5.036;2023-01-19T08:52:57;10.38;;;7.25;;
69087;SDS011;56190;43.562;5.036;2023-01-19T08:55:23;12.07;;;8.20;;
69087;SDS011;56190;43.562;5.036;2023-01-19T08:57:52;9.68;;;6.82;;
69087;SDS011;56190;43.562;5.036;2023-01-19T09:00:18;11.88;;;8.13;;
69087;SDS011;56190;43.562;5.036;2023-01-19T09:02:43;6.43;;;4.05;;
69087;SDS011;56190;43.562;5.036;2023-01-19T09:05:08;9.07;;;6.30;;
69087;SDS011;56190;43.562;5.036;2023-01-19T09:07:34;8.40;;;5.72;;
69087;SDS011;56190;43.562;5.036;2023-01-19T09:09:59;6.97;;;5.53;;
69087;SDS011;56190;43.562;5.036;2023-01-19T09:12:24;7.03;;;5.18;;
69087;SDS011;56190;43.562;5.036;2023-01-19T09:14:49;7.38;;;5.05;;
69087;SDS011;56190;43.562;5.036;2023-01-19T09:17:15;7.63;;;5.35;;
69087;SDS011;56190;43.562;5.036;2023-01-19T09:19:42;6.78;;;4.97;;
69087;SDS011;56190;43.562;5.036;2023-01-19T09:22:07;4.88;;;3.90;;
69087;SDS011;56190;43.562;5.036;2023-01-19T09:24:32;6.10;;;4.07;;
69087;SDS011;56190;43.562;5.036;2023-01-19T09:26:59;6.55;;;4.00;;
69087;SDS011;56190;43.562;5.036;2023-01-19T09:29:24;8.90;;;6.28;;
69087;SDS011;56190;43.562;5.036;2023-01-19T09:31:49;7.35;;;5.07;;
69087;SDS011;56190;43.562;5.036;2023-01-19T09:34:15;9.05;;;6.68;;
69087;SDS011;56190;43.562;5.036;2023-01-19T09:36:40;6.75;;;5.10;;
69087;SDS011;56190;43.562;5.036;2023-01-19T09:39:05;7.05;;;5.05;;
69087;SDS011;56190;43.562;5.036;2023-01-19T09:41:31;9.80;;;6.43;;
69087;SDS011;56190;43.562;5.036;2023-01-19T09:43:58;9.25;;;6.65;;
69087;SDS011;56190;43.562;5.036;2023-01-19T09:46:34;10.25;;;6.35;;
69087;SDS011;56190;43.562;5.036;2023-01-19T09:49:04;14.27;;;7.75;;
69087;SDS011;56190;43.562;5.036;2023-01-19T09:51:32;9.05;;;5.78;;
69087;SDS011;56190;43.562;5.036;2023-01-19T09:54:18;5.13;;;3.70;;
69087;SDS011;56190;43.562;5.036;2023-01-19T09:56:45;11.48;;;6.88;;
69087;SDS011;56190;43.562;5.036;2023-01-19T09:59:20;15.63;;;10.23;;
69087;SDS011;56190;43.562;5.036;2023-01-19T10:06:37;8.35;;;5.70;;
69087;SDS011;56190;43.562;5.036;2023-01-19T10:09:08;12.65;;;7.97;;
69087;SDS011;56190;43.562;5.036;2023-01-19T10:11:36;4.97;;;4.47;;
69087;SDS011;56190;43.562;5.036;2023-01-19T10:14:05;3.83;;;3.40;;
69087;SDS011;56190;43.562;5.036;2023-01-19T10:19:23;5.63;;;3.53;;
69087;SDS011;56190;43.562;5.036;2023-01-19T10:21:50;6.70;;;5.15;;
69087;SDS011;56190;43.562;5.036;2023-01-19T10:26:47;4.95;;;2.38;;
69087;SDS011;56190;43.562;5.036;2023-01-19T10:29:30;3.80;;;2.55;;
69087;SDS011;56190;43.562;5.036;2023-01-19T10:32:08;4.32;;;2.92;;
69087;SDS011;56190;43.562;5.036;2023-01-19T10:34:35;3.60;;;2.50;;
69087;SDS011;56190;43.562;5.036;2023-01-19T10:39:44;3.65;;;2.30;;
69087;SDS011;56190;43.562;5.036;2023-01-19T10:42:14;3.05;;;2.50;;
69087;SDS011;56190;43.562;5.036;2023-01-19T10:44:40;3.60;;;2.30;;
69087;SDS011;56190;43.562;5.036;2023-01-19T10:47:05;4.40;;;2.33;;
69087;SDS011;56190;43.562;5.036;2023-01-19T10:49:37;3.00;;;2.15;;
69087;SDS011;56190;43.562;5.036;2023-01-19T10:52:03;3.40;;;1.63;;
69087;SDS011;56190;43.562;5.036;2023-01-19T10:54:30;3.13;;;2.15;;
69087;SDS011;56190;43.562;5.036;2023-01-19T10:56:56;2.90;;;2.00;;
69087;SDS011;56190;43.562;5.036;2023-01-19T11:04:37;3.63;;;2.10;;
69087;SDS011;56190;43.562;5.036;2023-01-19T11:07:27;3.67;;;2.72;;
69087;SDS011;56190;43.562;5.036;2023-01-19T11:09:48;4.05;;;2.25;;
69087;SDS011;56190;43.562;5.036;2023-01-19T11:12:14;3.67;;;2.30;;
69087;SDS011;56190;43.562;5.036;2023-01-19T11:14:40;6.88;;;4.32;;
69087;SDS011;56190;43.562;5.036;2023-01-19T11:17:07;4.70;;;3.30;;
69087;SDS011;56190;43.562;5.036;2023-01-19T11:19:40;3.65;;;2.33;;
69087;SDS011;56190;43.562;5.036;2023-01-19T11:22:09;3.63;;;2.42;;
69087;SDS011;56190;43.562;5.036;2023-01-19T11:24:36;3.47;;;2.40;;
69087;SDS011;56190;43.562;5.036;2023-01-19T11:27:02;4.20;;;2.10;;
69087;SDS011;56190;43.562;5.036;2023-01-19T11:29:27;4.38;;;2.20;;
69087;SDS011;56190;43.562;5.036;2023-01-19T11:31:53;3.40;;;2.20;;
69087;SDS011;56190;43.562;5.036;2023-01-19T11:34:32;3.95;;;2.10;;
69087;SDS011;56190;43.562;5.036;2023-01-19T11:37:02;3.25;;;2.53;;
69087;SDS011;56190;43.562;5.036;2023-01-19T11:39:29;4.70;;;2.47;;
69087;SDS011;56190;43.562;5.036;2023-01-19T11:41:58;3.22;;;2.20;;
69087;SDS011;56190;43.562;5.036;2023-01-19T11:44:26;3.38;;;2.53;;
69087;SDS011;56190;43.562;5.036;2023-01-19T11:46:53;4.45;;;3.25;;
69087;SDS011;56190;43.562;5.036;2023-01-19T11:51:48;3.63;;;2.38;;
69087;SDS011;56190;43.562;5.036;2023-01-19T11:54:18;3.65;;;2.92;;
69087;SDS011;56190;43.562;5.036;2023-01-19T11:56:45;3.33;;;2.78;;
69087;SDS011;56190;43.562;5.036;2023-01-19T11:59:11;3.22;;;1.92;;
69087;SDS011;56190;43.562;5.036;2023-01-19T12:01:38;2.92;;;2.20;;
69087;SDS011;56190;43.562;5.036;2023-01-19T12:04:09;2.10;;;1.85;;
69087;SDS011;56190;43.562;5.036;2023-01-19T12:06:41;3.17;;;1.98;;
69087;SDS011;56190;43.562;5.036;2023-01-19T12:11:37;2.67;;;1.50;;
69087;SDS011;56190;43.562;5.036;2023-01-19T12:14:05;2.42;;;1.60;;
69087;SDS011;56190;43.562;5.036;2023-01-19T12:16:33;2.13;;;1.48;;
69087;SDS011;56190;43.562;5.036;2023-01-19T12:19:17;2.30;;;1.60;;
69087;SDS011;56190;43.562;5.036;2023-01-19T12:21:43;1.40;;;1.30;;
69087;SDS011;56190;43.562;5.036;2023-01-19T12:24:15;3.22;;;1.40;;
69087;SDS011;56190;43.562;5.036;2023-01-19T12:29:14;2.80;;;1.50;;
69087;SDS011;56190;43.562;5.036;2023-01-19T12:31:41;1.83;;;1.45;;
69087;SDS011;56190;43.562;5.036;2023-01-19T12:36:50;3.17;;;1.52;;
69087;SDS011;56190;43.562;5.036;2023-01-19T12:39:16;4.45;;;1.77;;
69087;SDS011;56190;43.562;5.036;2023-01-19T12:41:43;3.20;;;1.50;;
69087;SDS011;56190;43.562;5.036;2023-01-19T12:49:05;1.92;;;1.45;;
69087;SDS011;56190;43.562;5.036;2023-01-19T12:51:34;1.77;;;1.52;;
69087;SDS011;56190;43.562;5.036;2023-01-19T12:53:59;1.95;;;1.30;;
69087;SDS011;56190;43.562;5.036;2023-01-19T12:56:26;2.85;;;1.40;;
69087;SDS011;56190;43.562;5.036;2023-01-19T12:58:53;1.33;;;1.00;;
69087;SDS011;56190;43.562;5.036;2023-01-19T13:01:18;1.83;;;1.10;;
69087;SDS011;56190;43.562;5.036;2023-01-19T13:06:10;1.33;;;1.00;;
69087;SDS011;56190;43.562;5.036;2023-01-19T13:11:17;2.08;;;1.20;;
69087;SDS011;56190;43.562;5.036;2023-01-19T13:18:50;1.40;;;1.10;;
69087;SDS011;56190;43.562;5.036;2023-01-19T13:21:26;3.08;;;1.20;;
69087;SDS011;56190;43.562;5.036;2023-01-19T13:26:33;3.75;;;1.85;;
69087;SDS011;56190;43.562;5.036;2023-01-19T13:29:05;4.60;;;3.30;;
69087;SDS011;56190;43.562;5.036;2023-01-19T13:31:37;2.08;;;1.60;;
69087;SDS011;56190;43.562;5.036;2023-01-19T13:34:03;5.45;;;2.17;;
69087;SDS011;56190;43.562;5.036;2023-01-19T13:36:30;2.33;;;1.60;;
69087;SDS011;56190;43.562;5.036;2023-01-19T13:38:56;4.05;;;1.77;;
69087;SDS011;56190;43.562;5.036;2023-01-19T13:41:23;5.53;;;2.45;;
69087;SDS011;56190;43.562;5.036;2023-01-19T13:43:53;2.38;;;1.42;;
69087;SDS011;56190;43.562;5.036;2023-01-19T13:46:18;2.55;;;1.58;;
69087;SDS011;56190;43.562;5.036;2023-01-19T13:48:53;2.03;;;1.45;;
69087;SDS011;56190;43.562;5.036;2023-01-19T13:51:19;5.90;;;3.03;;
69087;SDS011;56190;43.562;5.036;2023-01-19T13:53:54;3.67;;;1.65;;
69087;SDS011;56190;43.562;5.036;2023-01-19T13:56:20;2.38;;;1.70;;
69087;SDS011;56190;43.562;5.036;2023-01-19T13:58:56;2.15;;;1.30;;
69087;SDS011;56190;43.562;5.036;2023-01-19T14:01:22;1.98;;;1.70;;
69087;SDS011;56190;43.562;5.036;2023-01-19T14:03:47;2.05;;;1.40;;
69087;SDS011;56190;43.562;5.036;2023-01-19T14:06:58;1.70;;;1.30;;
69087;SDS011;56190;43.562;5.036;2023-01-19T14:09:05;4.75;;;2.40;;
69087;SDS011;56190;43.562;5.036;2023-01-19T14:11:30;3.28;;;1.73;;
69087;SDS011;56190;43.562;5.036;2023-01-19T14:13:56;3.92;;;2.38;;
69087;SDS011;56190;43.562;5.036;2023-01-19T14:16:21;2.72;;;1.58;;
69087;SDS011;56190;43.562;5.036;2023-01-19T14:18:57;3.10;;;1.70;;
69087;SDS011;56190;43.562;5.036;2023-01-19T14:21:22;2.90;;;1.60;;
69087;SDS011;56190;43.562;5.036;2023-01-19T14:28:56;2.00;;;1.20;;
69087;SDS011;56190;43.562;5.036;2023-01-19T14:31:23;2.55;;;1.25;;
69087;SDS011;56190;43.562;5.036;2023-01-19T14:33:52;1.80;;;1.23;;
69087;SDS011;56190;43.562;5.036;2023-01-19T14:38:43;2.55;;;1.00;;
69087;SDS011;56190;43.562;5.036;2023-01-19T14:41:09;1.80;;;1.00;;
69087;SDS011;56190;43.562;5.036;2023-01-19T14:43:34;1.52;;;1.13;;
69087;SDS011;56190;43.562;5.036;2023-01-19T14:45:59;1.45;;;1.33;;
69087;SDS011;56190;43.562;5.036;2023-01-19T14:48:25;4.10;;;2.97;;
69087;SDS011;56190;43.562;5.036;2023-01-19T14:50:58;2.60;;;2.00;;
69087;SDS011;56190;43.562;5.036;2023-01-19T14:53:25;4.90;;;3.20;;
69087;SDS011;56190;43.562;5.036;2023-01-19T14:55:56;3.47;;;3.15;;
69087;SDS011;56190;43.562;5.036;2023-01-19T14:58:24;6.28;;;5.05;;
69087;SDS011;56190;43.562;5.036;2023-01-19T15:00:49;10.60;;;6.43;;
69087;SDS011;56190;43.562;5.036;2023-01-19T15:03:15;26.75;;;17.23;;
69087;SDS011;56190;43.562;5.036;2023-01-19T15:05:41;6.30;;;5.63;;
69087;SDS011;56190;43.562;5.036;2023-01-19T15:08:14;6.45;;;5.85;;
69087;SDS011;56190;43.562;5.036;2023-01-19T15:10:40;4.03;;;3.63;;
69087;SDS011;56190;43.562;5.036;2023-01-19T15:13:07;6.38;;;5.10;;
69087;SDS011;56190;43.562;5.036;2023-01-19T15:15:35;4.63;;;3.92;;
69087;SDS011;56190;43.562;5.036;2023-01-19T15:18:01;3.95;;;3.45;;
69087;SDS011;56190;43.562;5.036;2023-01-19T15:20:27;4.38;;;3.38;;
69087;SDS011;56190;43.562;5.036;2023-01-19T15:22:52;2.63;;;2.30;;
69087;SDS011;56190;43.562;5.036;2023-01-19T15:25:18;5.40;;;4.75;;
69087;SDS011;56190;43.562;5.036;2023-01-19T15:27:44;6.97;;;5.40;;
69087;SDS011;56190;43.562;5.036;2023-01-19T15:30:22;4.63;;;3.42;;
69087;SDS011;56190;43.562;5.036;2023-01-19T15:32:47;3.35;;;2.40;;
69087;SDS011;56190;43.562;5.036;2023-01-19T15:35:20;4.60;;;3.53;;
69087;SDS011;56190;43.562;5.036;2023-01-19T15:37:46;3.75;;;3.13;;
69087;SDS011;56190;43.562;5.036;2023-01-19T15:40:11;4.10;;;3.70;;
69087;SDS011;56190;43.562;5.036;2023-01-19T15:42:37;3.72;;;2.50;;
69087;SDS011;56190;43.562;5.036;2023-01-19T15:45:10;2.30;;;2.10;;
69087;SDS011;56190;43.562;5.036;2023-01-19T15:47:42;6.82;;;5.03;;
69087;SDS011;56190;43.562;5.036;2023-01-19T15:50:07;4.95;;;3.00;;
69087;SDS011;56190;43.562;5.036;2023-01-19T15:52:33;4.65;;;3.30;;
69087;SDS011;56190;43.562;5.036;2023-01-19T15:54:58;6.85;;;5.00;;